Terminal Aerodrome Forecast
Issued by NWS

Home | Current Version | Previous Version | Text Only | Print | Product List | Glossary On
Versions: 1 2 3 4 5 6 7 8 9 10 11 12 13
000
FTUS45 KREV 051100
TAFMMH
TAF
KMMH 051120Z 0512/0612 29005KT P6SM FEW150
     FM052000 26012G22KT P6SM VCSH SCT050 BKN100
     FM060300 VRB03KT P6SM SCT200=

USA.gov is the U.S. government's official web portal to all federal, state and local government web resources and services.